^^
Your Local Weather - Clay, NY Station Historical Data
Daily Summary for February 12, 2018 Units:  English    Metric   Both
« Previous Day
Next Day »
Daily Weekly Monthly Yearly Custom
  High: Low: Average:
Temperature: 34.2 °F 21.1 °F 27.5 °F
Dew Point: 30.7 °F 12.6 °F 20.4 °F
Humidity: 87% 66% 74%
Wind Speed: 7.0mph 0.0mph 3.1mph
Wind Gust: 17.0mph - -
Wind- - WNW
Pressure: 30.74 in 30.03 in -
Precipitation: 0.01 in    
Historical Graphs
 
 
Tabular Data for February 12, 2018
Time Temperature Dew Point Pressure Wind Wind Speed Wind Gust Humidity Rainfall Rate (Hourly) solar
00:02 34.2 °F 30.7 °F 30.03 in West 5.0 mph 7.0 mph 87% 0.00 in 0 W/m2
00:08 34.1 °F 30.6 °F 30.04 in WNW 6.0 mph 12.0 mph 87% 0.00 in 0 W/m2
00:14 34.1 °F 30.6 °F 30.04 in WNW 5.0 mph 6.0 mph 87% 0.00 in 0 W/m2
00:20 34.1 °F 30.6 °F 30.04 in NW 5.0 mph 5.0 mph 87% 0.00 in 0 W/m2
00:26 34.0 °F 30.5 °F 30.04 in NW 5.0 mph 8.0 mph 87% 0.00 in 0 W/m2
00:32 34.0 °F 30.5 °F 30.05 in WNW 5.0 mph 5.0 mph 87% 0.00 in 0 W/m2
00:38 33.9 °F 30.2 °F 30.06 in WNW 4.0 mph 11.0 mph 86% 0.00 in 0 W/m2
00:44 33.9 °F 30.2 °F 30.06 in WNW 5.0 mph 17.0 mph 86% 0.00 in 0 W/m2
00:50 33.9 °F 29.9 °F 30.06 in NNW 6.0 mph 7.0 mph 85% 0.00 in 0 W/m2
00:56 33.7 °F 29.7 °F 30.07 in WNW 6.0 mph 10.0 mph 85% 0.00 in 0 W/m2
01:02 33.6 °F 29.6 °F 30.07 in WNW 5.0 mph 6.0 mph 85% 0.00 in 0 W/m2
01:08 33.5 °F 29.5 °F 30.08 in WNW 4.0 mph 6.0 mph 85% 0.00 in 0 W/m2
01:14 33.4 °F 29.4 °F 30.09 in WNW 3.0 mph 8.0 mph 85% 0.00 in 0 W/m2
01:20 33.2 °F 28.9 °F 30.09 in WNW 4.0 mph 6.0 mph 84% 0.00 in 0 W/m2
01:26 33.0 °F 28.7 °F 30.10 in NW 5.0 mph 6.0 mph 84% 0.00 in 0 W/m2
01:32 32.8 °F 28.5 °F 30.11 in NW 5.0 mph 6.0 mph 84% 0.00 in 0 W/m2
01:38 32.6 °F 28.0 °F 30.11 in WNW 6.0 mph 8.0 mph 83% 0.00 in 0 W/m2
01:44 32.5 °F 27.9 °F 30.12 in NNW 5.0 mph 7.0 mph 83% 0.00 in 0 W/m2
01:50 32.2 °F 27.3 °F 30.12 in WNW 5.0 mph 5.0 mph 82% 0.00 in 0 W/m2
01:56 32.0 °F 27.1 °F 30.14 in WNW 5.0 mph 7.0 mph 82% 0.00 in 0 W/m2
02:02 31.7 °F 26.8 °F 30.15 in WNW 6.0 mph 7.0 mph 82% 0.00 in 0 W/m2
02:08 31.5 °F 26.3 °F 30.15 in WNW 7.0 mph 7.0 mph 81% 0.00 in 0 W/m2
02:14 31.4 °F 26.2 °F 30.15 in NW 6.0 mph 6.0 mph 81% 0.00 in 0 W/m2
02:20 31.2 °F 26.0 °F 30.15 in NW 5.0 mph 5.0 mph 81% 0.00 in 0 W/m2
02:26 31.1 °F 26.0 °F 30.16 in WNW 4.0 mph 5.0 mph 81% 0.00 in 0 W/m2
02:32 31.0 °F 25.9 °F 30.16 in NW 4.0 mph 4.0 mph 81% 0.00 in 0 W/m2
02:38 30.9 °F 25.8 °F 30.16 in NW 4.0 mph 6.0 mph 81% 0.00 in 0 W/m2
02:44 30.7 °F 25.6 °F 30.16 in NW 4.0 mph 4.0 mph 81% 0.00 in 0 W/m2
02:50 30.5 °F 25.4 °F 30.17 in NNW 4.0 mph 4.0 mph 81% 0.00 in 0 W/m2
02:56 30.2 °F 24.8 °F 30.18 in NW 5.0 mph 7.0 mph 80% 0.00 in 0 W/m2
03:02 29.9 °F 24.5 °F 30.19 in West 5.0 mph 5.0 mph 80% 0.00 in 0 W/m2
03:08 29.8 °F 24.1 °F 30.20 in WNW 5.0 mph 6.0 mph 79% 0.00 in 0 W/m2
03:14 29.6 °F 23.9 °F 30.21 in NW 4.0 mph 6.0 mph 79% 0.00 in 0 W/m2
03:20 29.5 °F 23.8 °F 30.20 in NW 4.0 mph 5.0 mph 79% 0.00 in 0 W/m2
03:26 29.2 °F 23.5 °F 30.21 in WNW 5.0 mph 8.0 mph 79% 0.00 in 0 W/m2
03:32 29.0 °F 23.0 °F 30.21 in WNW 7.0 mph 7.0 mph 78% 0.00 in 0 W/m2
03:38 28.9 °F 22.9 °F 30.22 in NW 5.0 mph 10.0 mph 78% 0.00 in 0 W/m2
03:44 28.9 °F 22.9 °F 30.22 in NW 4.0 mph 6.0 mph 78% 0.00 in 0 W/m2
03:50 28.8 °F 23.1 °F 30.23 in NNW 4.0 mph 7.0 mph 79% 0.00 in 0 W/m2
03:56 28.6 °F 22.6 °F 30.23 in NNW 4.0 mph 8.0 mph 78% 0.00 in 0 W/m2
04:02 28.6 °F 22.9 °F 30.23 in NNW 2.0 mph 3.0 mph 79% 0.00 in 0 W/m2
04:08 28.5 °F 22.5 °F 30.24 in NNW 2.0 mph 3.0 mph 78% 0.00 in 0 W/m2
04:14 28.5 °F 22.5 °F 30.25 in NW 2.0 mph 2.0 mph 78% 0.00 in 0 W/m2
04:20 28.5 °F 22.5 °F 30.25 in WNW 3.0 mph 3.0 mph 78% 0.00 in 0 W/m2
04:26 28.4 °F 22.4 °F 30.25 in NW 2.0 mph 3.0 mph 78% 0.00 in 0 W/m2
04:32 28.4 °F 22.4 °F 30.26 in NW 1.0 mph 2.0 mph 78% 0.00 in 0 W/m2
04:38 28.4 °F 22.4 °F 30.26 in NW 1.0 mph 3.0 mph 78% 0.00 in 0 W/m2
04:44 28.5 °F 22.5 °F 30.26 in NW 1.0 mph 3.0 mph 78% 0.00 in 0 W/m2
04:50 28.5 °F 22.5 °F 30.26 in NW 1.0 mph 1.0 mph 78% 0.00 in 0 W/m2
04:56 28.5 °F 22.5 °F 30.26 in NW 1.0 mph 2.0 mph 78% 0.00 in 0 W/m2
05:02 28.5 °F 22.5 °F 30.27 in Calm   1.0 mph 78% 0.00 in 0 W/m2
05:08 28.5 °F 22.5 °F 30.27 in Calm   3.0 mph 78% 0.00 in 0 W/m2
05:14 28.5 °F 22.5 °F 30.27 in NW 1.0 mph 1.0 mph 78% 0.00 in 0 W/m2
05:20 28.5 °F 22.5 °F 30.27 in Calm     78% 0.00 in 0 W/m2
05:26 28.5 °F 22.8 °F 30.27 in Calm   1.0 mph 79% 0.00 in 0 W/m2
05:32 28.5 °F 22.8 °F 30.29 in Calm   1.0 mph 79% 0.00 in 0 W/m2
05:38 28.5 °F 22.5 °F 30.29 in Calm   1.0 mph 78% 0.00 in 0 W/m2
05:40 28.5 °F 22.5 °F 30.28 in Calm     78% 0.00 in 0 W/m2
05:46 28.5 °F 22.5 °F 30.29 in Calm     78% 0.00 in 0 W/m2
05:52 28.5 °F 22.8 °F 30.29 in Calm     79% 0.00 in 0 W/m2
05:58 28.5 °F 22.8 °F 30.30 in Calm     79% 0.00 in 0 W/m2
06:04 28.5 °F 22.8 °F 30.31 in Calm     79% 0.00 in 0 W/m2
06:10 28.6 °F 22.9 °F 30.31 in Calm     79% 0.00 in 0 W/m2
06:16 28.6 °F 22.9 °F 30.31 in Calm     79% 0.00 in 0 W/m2
06:22 28.6 °F 23.2 °F 30.31 in Calm     80% 0.00 in 0 W/m2
06:28 28.6 °F 23.2 °F 30.31 in Calm     80% 0.00 in 0 W/m2
06:34 28.6 °F 23.2 °F 30.32 in Calm     80% 0.00 in 0 W/m2
06:40 28.6 °F 23.2 °F 30.31 in Calm     80% 0.00 in 0 W/m2
06:46 28.6 °F 23.2 °F 30.32 in Calm     80% 0.00 in 0 W/m2
06:52 28.7 °F 23.6 °F 30.32 in Calm     81% 0.00 in 0 W/m2
06:58 28.7 °F 23.6 °F 30.32 in Calm     81% 0.00 in 0 W/m2
07:04 28.7 °F 23.6 °F 30.32 in Calm     81% 0.00 in 0 W/m2
07:10 28.7 °F 23.6 °F 30.32 in Calm     81% 0.00 in 0 W/m2
07:16 28.8 °F 23.7 °F 30.32 in Calm     81% 0.00 in 0 W/m2
07:22 28.9 °F 23.8 °F 30.32 in Calm   2.0 mph 81% 0.00 in 0 W/m2
07:28 29.0 °F 23.9 °F 30.32 in Calm   2.0 mph 81% 0.00 in 5 W/m2
07:34 29.1 °F 24.0 °F 30.33 in NW 1.0 mph 2.0 mph 81% 0.00 in 9 W/m2
07:40 29.2 °F 24.1 °F 30.33 in WSW 2.0 mph 2.0 mph 81% 0.00 in 11 W/m2
07:46 29.4 °F 24.0 °F 30.33 in West 2.0 mph 2.0 mph 80% 0.00 in 16 W/m2
07:52 29.5 °F 23.8 °F 30.35 in West 2.0 mph 3.0 mph 79% 0.00 in 23 W/m2
07:58 29.6 °F 23.6 °F 30.35 in WNW 2.0 mph 3.0 mph 78% 0.00 in 25 W/m2
08:04 29.6 °F 23.3 °F 30.35 in WSW 2.0 mph 2.0 mph 77% 0.00 in 28 W/m2
08:10 29.6 °F 23.3 °F 30.36 in WNW 2.0 mph 2.0 mph 77% 0.00 in 12 W/m2
08:16 29.6 °F 23.3 °F 30.36 in WNW 2.0 mph 3.0 mph 77% 0.00 in 12 W/m2
08:22 29.6 °F 23.0 °F 30.37 in WNW 3.0 mph 3.0 mph 76% 0.00 in 12 W/m2
08:28 29.6 °F 23.0 °F 30.37 in WNW 2.0 mph 3.0 mph 76% 0.00 in 12 W/m2
08:34 29.5 °F 22.9 °F 30.37 in WNW 2.0 mph 3.0 mph 76% 0.00 in 46 W/m2
08:40 29.5 °F 22.9 °F 30.37 in West 2.0 mph 2.0 mph 76% 0.00 in 62 W/m2
08:46 29.5 °F 22.9 °F 30.38 in WNW 3.0 mph 3.0 mph 76% 0.00 in 70 W/m2
08:52 29.5 °F 22.9 °F 30.38 in WNW 3.0 mph 4.0 mph 76% 0.00 in 81 W/m2
08:58 29.5 °F 22.6 °F 30.39 in WNW 4.0 mph 7.0 mph 75% 0.00 in 109 W/m2
09:04 29.6 °F 22.6 °F 30.39 in WNW 5.0 mph 6.0 mph 75% 0.00 in 98 W/m2
09:10 29.4 °F 22.5 °F 30.40 in WNW 5.0 mph 5.0 mph 75% 0.00 in 93 W/m2
09:16 29.2 °F 22.3 °F 30.40 in West 5.0 mph 7.0 mph 75% 0.00 in 98 W/m2
09:22 29.2 °F 22.3 °F 30.40 in WNW 4.0 mph 6.0 mph 75% 0.00 in 123 W/m2
09:28 29.2 °F 21.9 °F 30.41 in NW 4.0 mph 6.0 mph 74% 0.00 in 88 W/m2
09:34 29.2 °F 21.6 °F 30.41 in West 5.0 mph 6.0 mph 73% 0.00 in 84 W/m2
09:40 29.2 °F 21.6 °F 30.41 in NW 4.0 mph 4.0 mph 73% 0.00 in 116 W/m2
09:46 29.3 °F 21.4 °F 30.41 in WNW 4.0 mph 4.0 mph 72% 0.00 in 149 W/m2
09:52 29.5 °F 21.3 °F 30.41 in WNW 4.0 mph 4.0 mph 71% 0.00 in 188 W/m2
09:58 29.6 °F 21.0 °F 30.41 in West 5.0 mph 9.0 mph 70% 0.00 in 250 W/m2
10:04 29.8 °F 21.2 °F 30.42 in NW 5.0 mph 7.0 mph 70% 0.00 in 234 W/m2
10:10 29.6 °F 21.3 °F 30.42 in WNW 5.0 mph 7.0 mph 71% 0.00 in 174 W/m2
10:16 29.3 °F 21.1 °F 30.43 in WNW 5.0 mph 7.0 mph 71% 0.00 in 146 W/m2
10:22 29.2 °F 21.3 °F 30.43 in NW 5.0 mph 7.0 mph 72% 0.00 in 134 W/m2
10:28 29.0 °F 21.1 °F 30.43 in West 5.0 mph 7.0 mph 72% 0.00 in 121 W/m2
10:34 28.9 °F 21.0 °F 30.43 in West 4.0 mph 6.0 mph 72% 0.00 in 202 W/m2
10:40 29.0 °F 21.1 °F 30.43 in WSW 5.0 mph 5.0 mph 72% 0.00 in 204 W/m2
10:46 29.2 °F 21.3 °F 30.44 in WNW 4.0 mph 6.0 mph 72% 0.00 in 193 W/m2
10:52 29.3 °F 21.4 °F 30.44 in WNW 4.0 mph 6.0 mph 72% 0.00 in 188 W/m2
10:58 29.3 °F 21.1 °F 30.44 in West 4.0 mph 6.0 mph 71% 0.00 in 257 W/m2
11:04 29.2 °F 20.3 °F 30.44 in West 5.0 mph 13.0 mph 69% 0.00 in 265 W/m2
11:10 29.4 °F 20.8 °F 30.44 in WNW 4.0 mph 4.0 mph 70% 0.00 in 225 W/m2
11:16 30.2 °F 20.6 °F 30.44 in WNW 4.0 mph 5.0 mph 67% 0.00 in 791 W/m2
11:22 30.1 °F 20.8 °F 30.44 in NW 5.0 mph 6.0 mph 68% 0.00 in 323 W/m2
11:28 29.9 °F 19.9 °F 30.45 in WNW 5.0 mph 6.0 mph 66% 0.00 in 301 W/m2
11:34 30.0 °F 20.4 °F 30.45 in WNW 4.0 mph 5.0 mph 67% 0.00 in 244 W/m2
11:40 29.7 °F 19.7 °F 30.45 in NW 5.0 mph 6.0 mph 66% 0.00 in 373 W/m2
11:46 30.0 °F 20.4 °F 30.45 in West 5.0 mph 6.0 mph 67% 0.00 in 294 W/m2
11:52 29.9 °F 20.6 °F 30.45 in NW 4.0 mph 7.0 mph 68% 0.00 in 179 W/m2
11:58 29.4 °F 20.1 °F 30.45 in WNW 5.0 mph 8.0 mph 68% 0.00 in 218 W/m2
12:04 29.4 °F 20.5 °F 30.46 in NW 5.0 mph 7.0 mph 69% 0.00 in 176 W/m2
12:10 29.4 °F 20.5 °F 30.45 in West 4.0 mph 4.0 mph 69% 0.00 in 295 W/m2
12:16 29.6 °F 20.7 °F 30.46 in WSW 3.0 mph 5.0 mph 69% 0.00 in 195 W/m2
12:22 29.6 °F 20.7 °F 30.46 in NW 4.0 mph 4.0 mph 69% 0.00 in 127 W/m2
12:28 29.4 °F 20.5 °F 30.46 in WNW 4.0 mph 10.0 mph 69% 0.00 in 104 W/m2
12:34 29.2 °F 20.6 °F 30.46 in WNW 4.0 mph 10.0 mph 70% 0.00 in 109 W/m2
12:40 29.0 °F 20.8 °F 30.46 in NW 4.0 mph 10.0 mph 71% 0.00 in 118 W/m2
12:46 28.6 °F 21.0 °F 30.47 in WNW 6.0 mph 10.0 mph 73% 0.00 in 128 W/m2
12:52 28.5 °F 21.3 °F 30.46 in NW 5.0 mph 6.0 mph 74% 0.00 in 162 W/m2
12:58 28.5 °F 21.9 °F 30.46 in WNW 4.0 mph 6.0 mph 76% 0.00 in 125 W/m2
13:04 28.0 °F 21.7 °F 30.47 in WNW 4.0 mph 4.0 mph 77% 0.00 in 120 W/m2
13:10 27.8 °F 22.1 °F 30.47 in WNW 5.0 mph 5.0 mph 79% 0.00 in 163 W/m2
13:16 27.6 °F 22.2 °F 30.48 in NW 5.0 mph 5.0 mph 80% 0.00 in 121 W/m2
13:22 27.4 °F 22.3 °F 30.48 in NW 5.0 mph 7.0 mph 81% 0.00 in 141 W/m2
13:28 27.3 °F 22.5 °F 30.48 in WNW 5.0 mph 7.0 mph 82% 0.00 in 165 W/m2
13:34 27.3 °F 22.5 °F 30.48 in WNW 5.0 mph 6.0 mph 82% 0.00 in 162 W/m2
13:40 27.3 °F 22.8 °F 30.48 in WNW 5.0 mph 5.0 mph 83% 0.00 in 209 W/m2
13:46 27.4 °F 22.9 °F 30.48 in WNW 4.0 mph 6.0 mph 83% 0.00 in 204 W/m2
13:52 27.4 °F 22.9 °F 30.48 in WNW 4.0 mph 4.0 mph 83% 0.00 in 199 W/m2
13:58 27.5 °F 23.0 °F 30.49 in WNW 4.0 mph 4.0 mph 83% 0.00 in 178 W/m2
14:04 27.3 °F 22.8 °F 30.49 in WNW 4.0 mph 5.0 mph 83% 0.00 in 153 W/m2
14:10 27.1 °F 22.3 °F 30.49 in WNW 5.0 mph 5.0 mph 82% 0.00 in 174 W/m2
14:16 27.1 °F 22.0 °F 30.49 in NW 5.0 mph 8.0 mph 81% 0.00 in 209 W/m2
14:22 27.2 °F 21.5 °F 30.49 in NW 4.0 mph 4.0 mph 79% 0.00 in 190 W/m2
14:28 27.2 °F 21.2 °F 30.49 in NW 4.0 mph 6.0 mph 78% 0.00 in 185 W/m2
14:34 27.1 °F 21.2 °F 30.50 in WNW 5.0 mph 6.0 mph 78% 0.00 in 366 W/m2
14:40 27.4 °F 21.4 °F 30.51 in WNW 5.0 mph 5.0 mph 78% 0.00 in 257 W/m2
14:46 27.9 °F 21.9 °F 30.51 in West 4.0 mph 5.0 mph 78% 0.00 in 244 W/m2
14:52 27.6 °F 21.3 °F 30.51 in WNW 4.0 mph 4.0 mph 77% 0.00 in 241 W/m2
14:58 27.2 °F 20.9 °F 30.52 in West 5.0 mph 11.0 mph 77% 0.00 in 162 W/m2
15:04 26.9 °F 20.3 °F 30.52 in NW 6.0 mph 8.0 mph 76% 0.00 in 197 W/m2
15:10 27.6 °F 20.1 °F 30.52 in WNW 6.0 mph 6.0 mph 73% 0.00 in 512 W/m2
15:16 27.7 °F 19.8 °F 30.52 in WNW 5.0 mph 6.0 mph 72% 0.00 in 221 W/m2
15:22 27.4 °F 19.6 °F 30.52 in NW 6.0 mph 6.0 mph 72% 0.00 in 105 W/m2
15:28 27.5 °F 19.7 °F 30.53 in WNW 4.0 mph 6.0 mph 72% 0.00 in 139 W/m2
15:34 27.4 °F 19.2 °F 30.54 in NNW 4.0 mph 6.0 mph 71% 0.00 in 123 W/m2
15:40 27.3 °F 18.8 °F 30.54 in WNW 4.0 mph 6.0 mph 70% 0.00 in 107 W/m2
15:46 27.2 °F 18.7 °F 30.54 in WNW 5.0 mph 6.0 mph 70% 0.00 in 81 W/m2
15:52 27.1 °F 17.9 °F 30.55 in WNW 5.0 mph 7.0 mph 68% 0.00 in 63 W/m2
16:00 26.9 °F 18.1 °F 30.56 in WNW 5.0 mph 5.0 mph 69% 0.00 in 86 W/m2
16:06 26.9 °F 18.1 °F 30.56 in WNW 4.0 mph 7.0 mph 69% 0.00 in 70 W/m2
16:12 26.8 °F 17.6 °F 30.56 in WNW 5.0 mph 8.0 mph 68% 0.00 in 79 W/m2
16:18 26.8 °F 18.0 °F 30.56 in WNW 5.0 mph 8.0 mph 69% 0.00 in 77 W/m2
16:24 26.7 °F 17.6 °F 30.56 in WNW 4.0 mph 5.0 mph 68% 0.00 in 58 W/m2
16:30 26.6 °F 17.5 °F 30.57 in NW 5.0 mph 10.0 mph 68% 0.00 in 67 W/m2
16:36 26.5 °F 17.4 °F 30.57 in WNW 5.0 mph 10.0 mph 68% 0.00 in 47 W/m2
16:42 26.4 °F 17.3 °F 30.57 in NW 5.0 mph 6.0 mph 68% 0.00 in 39 W/m2
16:48 26.3 °F 17.2 °F 30.57 in WNW 4.0 mph 6.0 mph 68% 0.00 in 32 W/m2
16:54 26.3 °F 17.2 °F 30.58 in WNW 4.0 mph 4.0 mph 68% 0.00 in 26 W/m2
17:00 26.2 °F 17.1 °F 30.58 in NW 4.0 mph 4.0 mph 68% 0.00 in 23 W/m2
17:06 26.1 °F 17.0 °F 30.59 in West 4.0 mph 8.0 mph 68% 0.00 in 18 W/m2
17:12 26.0 °F 16.9 °F 30.59 in NW 5.0 mph 5.0 mph 68% 0.00 in 12 W/m2
17:18 25.9 °F 16.8 °F 30.59 in NW 4.0 mph 5.0 mph 68% 0.00 in 9 W/m2
17:24 25.7 °F 16.3 °F 30.59 in WNW 4.0 mph 5.0 mph 67% 0.00 in 7 W/m2
17:30 25.6 °F 16.5 °F 30.59 in NW 3.0 mph 6.0 mph 68% 0.00 in 0 W/m2
17:36 25.4 °F 16.0 °F 30.60 in NW 3.0 mph 6.0 mph 67% 0.00 in 0 W/m2
17:42 25.3 °F 15.9 °F 30.60 in WNW 5.0 mph 5.0 mph 67% 0.00 in 0 W/m2
17:48 25.2 °F 15.8 °F 30.60 in WNW 4.0 mph 6.0 mph 67% 0.00 in 0 W/m2
17:54 25.0 °F 15.6 °F 30.61 in NW 4.0 mph 6.0 mph 67% 0.00 in 0 W/m2
18:00 25.0 °F 15.6 °F 30.61 in WNW 4.0 mph 4.0 mph 67% 0.00 in 0 W/m2
18:06 25.0 °F 15.6 °F 30.62 in WNW 4.0 mph 6.0 mph 67% 0.00 in 0 W/m2
18:12 24.9 °F 15.5 °F 30.62 in WNW 4.0 mph 4.0 mph 67% 0.00 in 0 W/m2
18:18 24.8 °F 15.4 °F 30.63 in WNW 4.0 mph 9.0 mph 67% 0.00 in 0 W/m2
18:24 24.7 °F 15.3 °F 30.63 in NNW 4.0 mph 5.0 mph 67% 0.00 in 0 W/m2
18:30 24.6 °F 15.2 °F 30.63 in WNW 3.0 mph 4.0 mph 67% 0.00 in 0 W/m2
18:36 24.5 °F 15.1 °F 30.63 in WNW 3.0 mph 6.0 mph 67% 0.00 in 0 W/m2
18:42 24.4 °F 15.0 °F 30.63 in NW 3.0 mph 5.0 mph 67% 0.00 in 0 W/m2
18:48 24.2 °F 14.8 °F 30.63 in WNW 2.0 mph 5.0 mph 67% 0.00 in 0 W/m2
18:54 24.0 °F 14.6 °F 30.64 in NW 2.0 mph 3.0 mph 67% 0.00 in 0 W/m2
19:00 24.1 °F 14.7 °F 30.64 in WNW 2.0 mph 2.0 mph 67% 0.00 in 0 W/m2
19:06 24.0 °F 14.6 °F 30.64 in NW 2.0 mph 3.0 mph 67% 0.00 in 0 W/m2
19:12 24.0 °F 14.6 °F 30.65 in WNW 2.0 mph 2.0 mph 67% 0.00 in 0 W/m2
19:18 24.1 °F 14.7 °F 30.65 in WNW 2.0 mph 2.0 mph 67% 0.00 in 0 W/m2
19:24 24.1 °F 14.7 °F 30.65 in West 2.0 mph 5.0 mph 67% 0.00 in 0 W/m2
19:30 24.0 °F 14.6 °F 30.65 in NW 2.0 mph 2.0 mph 67% 0.00 in 0 W/m2
19:36 24.0 °F 14.6 °F 30.65 in NW 2.0 mph 5.0 mph 67% 0.00 in 0 W/m2
19:42 23.9 °F 14.5 °F 30.65 in NW 2.0 mph 5.0 mph 67% 0.00 in 0 W/m2
19:48 24.0 °F 14.6 °F 30.66 in NW 2.0 mph 5.0 mph 67% 0.00 in 0 W/m2
19:54 23.9 °F 14.5 °F 30.66 in NW 2.0 mph 2.0 mph 67% 0.00 in 0 W/m2
20:00 23.8 °F 14.4 °F 30.66 in NW 2.0 mph 2.0 mph 67% 0.00 in 0 W/m2
20:06 23.7 °F 14.3 °F 30.67 in WNW 2.0 mph 5.0 mph 67% 0.00 in 0 W/m2
20:12 23.6 °F 14.2 °F 30.67 in WNW 2.0 mph 3.0 mph 67% 0.00 in 0 W/m2
20:18 23.4 °F 14.0 °F 30.67 in NW 1.0 mph 4.0 mph 67% 0.00 in 0 W/m2
20:24 23.3 °F 14.0 °F 30.67 in WNW 2.0 mph 4.0 mph 67% 0.00 in 0 W/m2
20:30 23.0 °F 13.7 °F 30.67 in WNW 1.0 mph 1.0 mph 67% 0.00 in 0 W/m2
20:36 22.9 °F 13.9 °F 30.67 in WNW 1.0 mph 3.0 mph 68% 0.00 in 0 W/m2
20:42 22.7 °F 13.7 °F 30.67 in WNW 1.0 mph 2.0 mph 68% 0.00 in 0 W/m2
20:48 22.4 °F 13.4 °F 30.68 in WNW 1.0 mph 3.0 mph 68% 0.00 in 0 W/m2
20:54 22.3 °F 13.3 °F 30.68 in WNW 1.0 mph 3.0 mph 68% 0.00 in 0 W/m2
21:00 22.0 °F 13.0 °F 30.68 in WNW 1.0 mph 2.0 mph 68% 0.00 in 0 W/m2
21:06 21.9 °F 13.3 °F 30.69 in Calm   2.0 mph 69% 0.00 in 0 W/m2
21:12 21.7 °F 13.1 °F 30.69 in Calm     69% 0.00 in 0 W/m2
21:18 21.5 °F 12.9 °F 30.70 in Calm     69% 0.00 in 0 W/m2
21:24 21.3 °F 12.7 °F 30.70 in Calm     69% 0.00 in 0 W/m2
21:30 21.2 °F 12.9 °F 30.70 in Calm     70% 0.00 in 0 W/m2
21:36 21.1 °F 12.8 °F 30.70 in Calm   1.0 mph 70% 0.00 in 0 W/m2
21:42 21.2 °F 13.3 °F 30.71 in Calm     71% 0.00 in 0 W/m2
21:48 21.3 °F 13.4 °F 30.71 in Calm   1.0 mph 71% 0.00 in 0 W/m2
21:54 21.5 °F 13.5 °F 30.71 in Calm   2.0 mph 71% 0.00 in 0 W/m2
22:00 21.6 °F 13.6 °F 30.71 in Calm     71% 0.00 in 0 W/m2
22:06 21.7 °F 13.7 °F 30.72 in Calm   2.0 mph 71% 0.00 in 0 W/m2
22:12 22.1 °F 14.1 °F 30.72 in WNW 1.0 mph 1.0 mph 71% 0.00 in 0 W/m2
22:18 22.3 °F 14.3 °F 30.72 in WNW 1.0 mph 1.0 mph 71% 0.00 in 0 W/m2
22:24 22.4 °F 14.1 °F 30.72 in WNW 1.0 mph 2.0 mph 70% 0.00 in 0 W/m2
22:30 22.4 °F 14.1 °F 30.72 in WNW 1.0 mph 1.0 mph 70% 0.00 in 0 W/m2
22:36 22.5 °F 14.2 °F 30.73 in WNW 1.0 mph 2.0 mph 70% 0.00 in 0 W/m2
22:42 22.5 °F 14.2 °F 30.73 in WNW 1.0 mph 1.0 mph 70% 0.00 in 0 W/m2
22:48 22.4 °F 13.8 °F 30.73 in NW 2.0 mph 4.0 mph 69% 0.00 in 0 W/m2
22:54 22.4 °F 13.8 °F 30.73 in NW 2.0 mph 4.0 mph 69% 0.00 in 0 W/m2
23:00 22.4 °F 13.4 °F 30.73 in NNW 2.0 mph 3.0 mph 68% 0.00 in 0 W/m2
23:06 22.3 °F 13.3 °F 30.73 in NW 3.0 mph 5.0 mph 68% 0.00 in 0 W/m2
23:12 22.3 °F 13.0 °F 30.74 in NW 3.0 mph 3.0 mph 67% 0.00 in 0 W/m2
23:18 22.2 °F 12.9 °F 30.73 in West 2.0 mph 3.0 mph 67% 0.00 in 0 W/m2
23:24 22.2 °F 12.9 °F 30.73 in North 2.0 mph 4.0 mph 67% 0.00 in 0 W/m2
23:30 22.1 °F 12.8 °F 30.73 in WNW 2.0 mph 2.0 mph 67% 0.00 in 0 W/m2
23:36 22.0 °F 12.7 °F 30.73 in NNW 2.0 mph 8.0 mph 67% 0.00 in 0 W/m2
23:42 22.0 °F 12.7 °F 30.73 in NW 2.0 mph 2.0 mph 67% 0.00 in 0 W/m2
23:48 22.0 °F 12.7 °F 30.74 in NW 2.0 mph 4.0 mph 67% 0.00 in 0 W/m2
23:54 21.9 °F 12.6 °F 30.74 in NNW 2.0 mph 3.0 mph 67% 0.00 in 0 W/m2
Country Meadow, Clay, NY, USA
Compliments of Weather Underground - 2 mb